sensor_id;sensor_type;location;lat;lon;timestamp;temperature;humidity
51557;DHT22;38766;53.194;5.532;2023-04-06T00:00:50;6.00;96.40
51557;DHT22;38766;53.194;5.532;2023-04-06T00:03:16;6.00;96.50
51557;DHT22;38766;53.194;5.532;2023-04-06T00:05:42;6.00;96.50
51557;DHT22;38766;53.194;5.532;2023-04-06T00:08:07;5.90;96.30
51557;DHT22;38766;53.194;5.532;2023-04-06T00:10:33;5.90;96.20
51557;DHT22;38766;53.194;5.532;2023-04-06T00:12:59;5.80;96.10
51557;DHT22;38766;53.194;5.532;2023-04-06T00:15:26;5.70;96.10
51557;DHT22;38766;53.194;5.532;2023-04-06T00:17:52;5.70;96.20
51557;DHT22;38766;53.194;5.532;2023-04-06T00:20:18;5.60;96.30
51557;DHT22;38766;53.194;5.532;2023-04-06T00:22:44;5.60;96.40
51557;DHT22;38766;53.194;5.532;2023-04-06T00:25:10;5.60;96.50
51557;DHT22;38766;53.194;5.532;2023-04-06T00:27:37;5.50;96.70
51557;DHT22;38766;53.194;5.532;2023-04-06T00:30:06;5.50;96.70
51557;DHT22;38766;53.194;5.532;2023-04-06T00:32:32;5.50;96.90
51557;DHT22;38766;53.194;5.532;2023-04-06T00:34:58;5.50;96.80
51557;DHT22;38766;53.194;5.532;2023-04-06T00:37:24;5.50;96.80
51557;DHT22;38766;53.194;5.532;2023-04-06T00:39:50;5.50;96.90
51557;DHT22;38766;53.194;5.532;2023-04-06T00:42:18;5.50;97.10
51557;DHT22;38766;53.194;5.532;2023-04-06T00:44:52;5.30;97.10
51557;DHT22;38766;53.194;5.532;2023-04-06T00:47:17;5.40;97.40
51557;DHT22;38766;53.194;5.532;2023-04-06T00:49:43;5.40;97.50
51557;DHT22;38766;53.194;5.532;2023-04-06T00:52:09;5.30;97.70
51557;DHT22;38766;53.194;5.532;2023-04-06T00:54:34;5.30;97.80
51557;DHT22;38766;53.194;5.532;2023-04-06T00:57:00;5.30;98.00
51557;DHT22;38766;53.194;5.532;2023-04-06T00:59:27;5.30;98.00
51557;DHT22;38766;53.194;5.532;2023-04-06T01:01:52;5.30;98.00
51557;DHT22;38766;53.194;5.532;2023-04-06T01:04:18;5.30;98.00
51557;DHT22;38766;53.194;5.532;2023-04-06T01:06:44;5.30;98.10
51557;DHT22;38766;53.194;5.532;2023-04-06T01:09:11;5.20;98.30
51557;DHT22;38766;53.194;5.532;2023-04-06T01:11:36;5.10;98.60
51557;DHT22;38766;53.194;5.532;2023-04-06T01:14:03;5.10;98.60
51557;DHT22;38766;53.194;5.532;2023-04-06T01:16:29;5.00;98.80
51557;DHT22;38766;53.194;5.532;2023-04-06T01:18:54;5.00;99.10
51557;DHT22;38766;53.194;5.532;2023-04-06T01:21:20;5.00;99.10
51557;DHT22;38766;53.194;5.532;2023-04-06T01:23:46;5.00;99.40
51557;DHT22;38766;53.194;5.532;2023-04-06T01:26:12;4.80;99.60
51557;DHT22;38766;53.194;5.532;2023-04-06T01:28:38;4.80;99.80
51557;DHT22;38766;53.194;5.532;2023-04-06T01:31:08;4.80;99.90
51557;DHT22;38766;53.194;5.532;2023-04-06T01:33:34;4.80;99.90
51557;DHT22;38766;53.194;5.532;2023-04-06T01:36:00;4.80;99.90
51557;DHT22;38766;53.194;5.532;2023-04-06T01:38:26;4.70;99.90
51557;DHT22;38766;53.194;5.532;2023-04-06T01:40:53;4.70;99.90
51557;DHT22;38766;53.194;5.532;2023-04-06T01:43:18;4.70;99.90
51557;DHT22;38766;53.194;5.532;2023-04-06T01:45:44;4.70;99.90
51557;DHT22;38766;53.194;5.532;2023-04-06T01:48:10;4.70;99.90
51557;DHT22;38766;53.194;5.532;2023-04-06T01:50:36;4.60;99.90
51557;DHT22;38766;53.194;5.532;2023-04-06T01:53:02;4.60;99.90
51557;DHT22;38766;53.194;5.532;2023-04-06T01:55:28;4.60;99.90
51557;DHT22;38766;53.194;5.532;2023-04-06T01:57:53;4.60;99.90
51557;DHT22;38766;53.194;5.532;2023-04-06T02:00:19;4.60;99.90
51557;DHT22;38766;53.194;5.532;2023-04-06T02:02:44;4.60;99.90
51557;DHT22;38766;53.194;5.532;2023-04-06T02:05:10;4.50;99.90
51557;DHT22;38766;53.194;5.532;2023-04-06T02:07:36;4.50;99.90
51557;DHT22;38766;53.194;5.532;2023-04-06T02:10:03;4.50;99.90
51557;DHT22;38766;53.194;5.532;2023-04-06T02:12:28;4.40;99.90
51557;DHT22;38766;53.194;5.532;2023-04-06T02:14:54;4.40;99.90
51557;DHT22;38766;53.194;5.532;2023-04-06T02:17:19;4.50;99.90
51557;DHT22;38766;53.194;5.532;2023-04-06T02:19:45;4.30;99.90
51557;DHT22;38766;53.194;5.532;2023-04-06T02:22:11;4.30;99.90
51557;DHT22;38766;53.194;5.532;2023-04-06T02:24:37;4.30;99.90
51557;DHT22;38766;53.194;5.532;2023-04-06T02:27:02;4.30;99.90
51557;DHT22;38766;53.194;5.532;2023-04-06T02:29:28;4.30;99.90
51557;DHT22;38766;53.194;5.532;2023-04-06T02:31:54;4.30;99.90
51557;DHT22;38766;53.194;5.532;2023-04-06T02:34:19;4.30;99.90
51557;DHT22;38766;53.194;5.532;2023-04-06T02:36:45;4.20;99.90
51557;DHT22;38766;53.194;5.532;2023-04-06T02:39:12;4.20;99.90
51557;DHT22;38766;53.194;5.532;2023-04-06T02:41:38;4.20;99.90
51557;DHT22;38766;53.194;5.532;2023-04-06T02:44:07;4.20;99.90
51557;DHT22;38766;53.194;5.532;2023-04-06T02:46:33;4.20;99.90
51557;DHT22;38766;53.194;5.532;2023-04-06T02:48:58;4.20;99.90
51557;DHT22;38766;53.194;5.532;2023-04-06T02:51:26;4.20;99.90
51557;DHT22;38766;53.194;5.532;2023-04-06T02:53:52;4.10;99.90
51557;DHT22;38766;53.194;5.532;2023-04-06T02:56:17;4.00;99.90
51557;DHT22;38766;53.194;5.532;2023-04-06T02:58:43;4.00;99.90
51557;DHT22;38766;53.194;5.532;2023-04-06T03:01:09;4.00;99.90
51557;DHT22;38766;53.194;5.532;2023-04-06T03:03:35;4.00;99.90
51557;DHT22;38766;53.194;5.532;2023-04-06T03:06:00;4.00;99.90
51557;DHT22;38766;53.194;5.532;2023-04-06T03:08:26;4.00;99.90
51557;DHT22;38766;53.194;5.532;2023-04-06T03:10:51;4.00;99.90
51557;DHT22;38766;53.194;5.532;2023-04-06T03:13:17;4.00;99.90
51557;DHT22;38766;53.194;5.532;2023-04-06T03:15:43;4.00;99.90
51557;DHT22;38766;53.194;5.532;2023-04-06T03:18:08;4.10;99.90
51557;DHT22;38766;53.194;5.532;2023-04-06T03:20:34;4.00;99.90
51557;DHT22;38766;53.194;5.532;2023-04-06T03:23:00;3.90;99.90
51557;DHT22;38766;53.194;5.532;2023-04-06T03:25:25;3.90;99.90
51557;DHT22;38766;53.194;5.532;2023-04-06T03:27:51;3.90;99.90
51557;DHT22;38766;53.194;5.532;2023-04-06T03:30:16;4.00;99.90
51557;DHT22;38766;53.194;5.532;2023-04-06T03:32:43;3.90;99.90
51557;DHT22;38766;53.194;5.532;2023-04-06T03:35:10;4.00;99.90
51557;DHT22;38766;53.194;5.532;2023-04-06T03:37:35;3.90;99.90
51557;DHT22;38766;53.194;5.532;2023-04-06T03:40:02;3.90;99.90
51557;DHT22;38766;53.194;5.532;2023-04-06T03:42:28;3.90;99.90
51557;DHT22;38766;53.194;5.532;2023-04-06T03:44:54;3.90;99.90
51557;DHT22;38766;53.194;5.532;2023-04-06T03:47:19;3.90;99.90
51557;DHT22;38766;53.194;5.532;2023-04-06T03:49:45;3.90;99.90
51557;DHT22;38766;53.194;5.532;2023-04-06T03:52:11;3.70;99.90
51557;DHT22;38766;53.194;5.532;2023-04-06T03:54:37;3.90;99.90
51557;DHT22;38766;53.194;5.532;2023-04-06T03:57:03;3.80;99.90
51557;DHT22;38766;53.194;5.532;2023-04-06T03:59:29;3.80;99.90
51557;DHT22;38766;53.194;5.532;2023-04-06T04:01:54;3.80;99.90
51557;DHT22;38766;53.194;5.532;2023-04-06T04:04:20;3.80;99.90
51557;DHT22;38766;53.194;5.532;2023-04-06T04:06:46;3.80;99.90
51557;DHT22;38766;53.194;5.532;2023-04-06T04:09:11;3.80;99.90
51557;DHT22;38766;53.194;5.532;2023-04-06T04:11:37;3.80;99.90
51557;DHT22;38766;53.194;5.532;2023-04-06T04:14:03;3.80;99.90
51557;DHT22;38766;53.194;5.532;2023-04-06T04:16:29;3.80;99.90
51557;DHT22;38766;53.194;5.532;2023-04-06T04:18:54;3.80;99.90
51557;DHT22;38766;53.194;5.532;2023-04-06T04:21:20;3.80;99.90
51557;DHT22;38766;53.194;5.532;2023-04-06T04:23:46;3.70;99.90
51557;DHT22;38766;53.194;5.532;2023-04-06T04:26:11;3.70;99.90
51557;DHT22;38766;53.194;5.532;2023-04-06T04:28:37;3.70;99.90
51557;DHT22;38766;53.194;5.532;2023-04-06T04:31:03;3.70;99.90
51557;DHT22;38766;53.194;5.532;2023-04-06T04:33:28;3.70;99.90
51557;DHT22;38766;53.194;5.532;2023-04-06T04:35:54;3.70;99.90
51557;DHT22;38766;53.194;5.532;2023-04-06T04:38:20;3.70;99.90
51557;DHT22;38766;53.194;5.532;2023-04-06T04:40:46;3.80;99.90
51557;DHT22;38766;53.194;5.532;2023-04-06T04:43:11;3.70;99.90
51557;DHT22;38766;53.194;5.532;2023-04-06T04:45:37;3.80;99.90
51557;DHT22;38766;53.194;5.532;2023-04-06T04:48:02;3.80;99.90
51557;DHT22;38766;53.194;5.532;2023-04-06T04:50:30;3.70;99.90
51557;DHT22;38766;53.194;5.532;2023-04-06T04:52:56;3.70;99.90
51557;DHT22;38766;53.194;5.532;2023-04-06T04:55:21;3.70;99.90
51557;DHT22;38766;53.194;5.532;2023-04-06T04:57:47;3.70;99.90
51557;DHT22;38766;53.194;5.532;2023-04-06T05:00:13;3.70;99.90
51557;DHT22;38766;53.194;5.532;2023-04-06T05:02:39;3.70;99.90
51557;DHT22;38766;53.194;5.532;2023-04-06T05:05:05;3.60;99.90
51557;DHT22;38766;53.194;5.532;2023-04-06T05:07:30;3.60;99.90
51557;DHT22;38766;53.194;5.532;2023-04-06T05:09:56;3.60;99.90
51557;DHT22;38766;53.194;5.532;2023-04-06T05:12:22;3.60;99.90
51557;DHT22;38766;53.194;5.532;2023-04-06T05:14:48;3.70;99.90
51557;DHT22;38766;53.194;5.532;2023-04-06T05:17:13;3.60;99.90
51557;DHT22;38766;53.194;5.532;2023-04-06T05:19:39;3.60;99.90
51557;DHT22;38766;53.194;5.532;2023-04-06T05:22:05;3.60;99.90
51557;DHT22;38766;53.194;5.532;2023-04-06T05:24:30;3.60;99.90
51557;DHT22;38766;53.194;5.532;2023-04-06T05:26:56;3.60;99.90
51557;DHT22;38766;53.194;5.532;2023-04-06T05:29:22;3.60;99.90
51557;DHT22;38766;53.194;5.532;2023-04-06T05:31:47;3.60;99.90
51557;DHT22;38766;53.194;5.532;2023-04-06T05:34:13;3.60;99.90
51557;DHT22;38766;53.194;5.532;2023-04-06T05:36:39;3.60;99.90
51557;DHT22;38766;53.194;5.532;2023-04-06T05:39:06;3.70;99.90
51557;DHT22;38766;53.194;5.532;2023-04-06T05:41:32;3.70;99.90
51557;DHT22;38766;53.194;5.532;2023-04-06T05:43:57;3.80;99.90
51557;DHT22;38766;53.194;5.532;2023-04-06T05:46:23;3.70;99.90
51557;DHT22;38766;53.194;5.532;2023-04-06T05:48:48;3.70;99.90
51557;DHT22;38766;53.194;5.532;2023-04-06T05:51:14;3.70;99.90
51557;DHT22;38766;53.194;5.532;2023-04-06T05:53:40;3.80;99.90
51557;DHT22;38766;53.194;5.532;2023-04-06T05:56:06;3.80;99.90
51557;DHT22;38766;53.194;5.532;2023-04-06T05:58:31;3.80;99.90
51557;DHT22;38766;53.194;5.532;2023-04-06T06:00:58;3.90;99.90
51557;DHT22;38766;53.194;5.532;2023-04-06T06:03:24;3.90;99.90
51557;DHT22;38766;53.194;5.532;2023-04-06T06:05:50;3.90;99.90
51557;DHT22;38766;53.194;5.532;2023-04-06T06:08:16;3.90;99.90
51557;DHT22;38766;53.194;5.532;2023-04-06T06:10:41;4.00;99.90
51557;DHT22;38766;53.194;5.532;2023-04-06T06:13:07;4.00;99.90
51557;DHT22;38766;53.194;5.532;2023-04-06T06:15:33;4.10;99.90
51557;DHT22;38766;53.194;5.532;2023-04-06T06:17:58;4.10;99.90
51557;DHT22;38766;53.194;5.532;2023-04-06T06:20:24;4.20;99.90
51557;DHT22;38766;53.194;5.532;2023-04-06T06:22:50;4.30;99.90
51557;DHT22;38766;53.194;5.532;2023-04-06T06:25:16;4.40;99.90
51557;DHT22;38766;53.194;5.532;2023-04-06T06:27:41;4.40;99.90
51557;DHT22;38766;53.194;5.532;2023-04-06T06:30:08;4.60;99.90
51557;DHT22;38766;53.194;5.532;2023-04-06T06:32:34;4.70;99.90
51557;DHT22;38766;53.194;5.532;2023-04-06T06:34:59;4.80;99.90
51557;DHT22;38766;53.194;5.532;2023-04-06T06:37:25;4.90;99.90
51557;DHT22;38766;53.194;5.532;2023-04-06T06:39:51;5.10;99.90
51557;DHT22;38766;53.194;5.532;2023-04-06T06:42:17;5.20;99.90
51557;DHT22;38766;53.194;5.532;2023-04-06T06:44:42;5.30;99.90
51557;DHT22;38766;53.194;5.532;2023-04-06T06:47:08;5.30;99.90
51557;DHT22;38766;53.194;5.532;2023-04-06T06:49:34;5.40;99.90
51557;DHT22;38766;53.194;5.532;2023-04-06T06:51:59;5.50;99.90
51557;DHT22;38766;53.194;5.532;2023-04-06T06:54:25;5.50;99.90
51557;DHT22;38766;53.194;5.532;2023-04-06T06:56:51;5.60;99.90
51557;DHT22;38766;53.194;5.532;2023-04-06T06:59:16;5.70;99.90
51557;DHT22;38766;53.194;5.532;2023-04-06T07:01:42;5.70;99.90
51557;DHT22;38766;53.194;5.532;2023-04-06T07:04:07;5.80;99.90
51557;DHT22;38766;53.194;5.532;2023-04-06T07:06:35;5.80;99.90
51557;DHT22;38766;53.194;5.532;2023-04-06T07:09:02;5.90;99.90
51557;DHT22;38766;53.194;5.532;2023-04-06T07:11:29;5.90;99.90
51557;DHT22;38766;53.194;5.532;2023-04-06T07:13:55;6.00;99.90
51557;DHT22;38766;53.194;5.532;2023-04-06T07:16:20;6.10;99.90
51557;DHT22;38766;53.194;5.532;2023-04-06T07:18:46;6.20;99.90
51557;DHT22;38766;53.194;5.532;2023-04-06T07:21:12;6.40;99.90
51557;DHT22;38766;53.194;5.532;2023-04-06T07:23:38;6.50;99.90
51557;DHT22;38766;53.194;5.532;2023-04-06T07:26:04;6.60;99.90
51557;DHT22;38766;53.194;5.532;2023-04-06T07:28:30;6.80;99.90
51557;DHT22;38766;53.194;5.532;2023-04-06T07:30:55;7.00;99.90
51557;DHT22;38766;53.194;5.532;2023-04-06T07:33:21;7.30;99.90
51557;DHT22;38766;53.194;5.532;2023-04-06T07:35:47;7.50;99.90
51557;DHT22;38766;53.194;5.532;2023-04-06T07:38:13;7.60;99.90
51557;DHT22;38766;53.194;5.532;2023-04-06T07:40:38;7.80;99.90
51557;DHT22;38766;53.194;5.532;2023-04-06T07:43:04;7.80;99.90
51557;DHT22;38766;53.194;5.532;2023-04-06T07:45:30;7.90;99.90
51557;DHT22;38766;53.194;5.532;2023-04-06T07:47:55;7.90;99.90
51557;DHT22;38766;53.194;5.532;2023-04-06T07:50:21;7.90;99.90
51557;DHT22;38766;53.194;5.532;2023-04-06T07:52:47;7.90;99.90
51557;DHT22;38766;53.194;5.532;2023-04-06T07:55:12;8.00;99.90
51557;DHT22;38766;53.194;5.532;2023-04-06T07:57:38;8.00;99.90
51557;DHT22;38766;53.194;5.532;2023-04-06T08:00:04;8.00;99.90
51557;DHT22;38766;53.194;5.532;2023-04-06T08:02:31;8.10;99.90
51557;DHT22;38766;53.194;5.532;2023-04-06T08:04:57;8.10;99.90
51557;DHT22;38766;53.194;5.532;2023-04-06T08:07:23;8.00;99.90
51557;DHT22;38766;53.194;5.532;2023-04-06T08:09:48;8.10;99.90
51557;DHT22;38766;53.194;5.532;2023-04-06T08:12:14;8.10;99.90
51557;DHT22;38766;53.194;5.532;2023-04-06T08:14:40;8.10;99.90
51557;DHT22;38766;53.194;5.532;2023-04-06T08:17:06;8.20;99.90
51557;DHT22;38766;53.194;5.532;2023-04-06T08:19:31;8.20;99.90
51557;DHT22;38766;53.194;5.532;2023-04-06T08:21:57;8.20;99.70
51557;DHT22;38766;53.194;5.532;2023-04-06T08:24:23;8.20;99.60
51557;DHT22;38766;53.194;5.532;2023-04-06T08:26:48;8.30;99.80
51557;DHT22;38766;53.194;5.532;2023-04-06T08:29:16;8.30;99.60
51557;DHT22;38766;53.194;5.532;2023-04-06T08:31:41;8.40;99.50
51557;DHT22;38766;53.194;5.532;2023-04-06T08:34:07;8.40;99.50
51557;DHT22;38766;53.194;5.532;2023-04-06T08:36:32;8.40;99.40
51557;DHT22;38766;53.194;5.532;2023-04-06T08:38:59;8.50;99.40
51557;DHT22;38766;53.194;5.532;2023-04-06T08:41:25;8.50;99.30
51557;DHT22;38766;53.194;5.532;2023-04-06T08:44:00;8.50;99.10
51557;DHT22;38766;53.194;5.532;2023-04-06T08:46:26;8.60;99.50
51557;DHT22;38766;53.194;5.532;2023-04-06T08:48:58;8.70;99.60
51557;DHT22;38766;53.194;5.532;2023-04-06T08:51:24;8.70;99.50
51557;DHT22;38766;53.194;5.532;2023-04-06T08:53:54;8.80;99.20
51557;DHT22;38766;53.194;5.532;2023-04-06T08:56:22;8.80;99.10
51557;DHT22;38766;53.194;5.532;2023-04-06T08:58:49;8.80;99.20
51557;DHT22;38766;53.194;5.532;2023-04-06T09:01:17;8.90;99.00
51557;DHT22;38766;53.194;5.532;2023-04-06T09:03:44;9.00;98.40
51557;DHT22;38766;53.194;5.532;2023-04-06T09:06:11;8.90;98.10
51557;DHT22;38766;53.194;5.532;2023-04-06T09:08:39;9.00;97.70
51557;DHT22;38766;53.194;5.532;2023-04-06T09:11:06;8.90;97.50
51557;DHT22;38766;53.194;5.532;2023-04-06T09:13:50;8.90;97.70
51557;DHT22;38766;53.194;5.532;2023-04-06T09:16:16;8.90;97.40
51557;DHT22;38766;53.194;5.532;2023-04-06T09:18:42;8.90;97.40
51557;DHT22;38766;53.194;5.532;2023-04-06T09:21:09;8.90;97.60
51557;DHT22;38766;53.194;5.532;2023-04-06T09:23:35;8.90;97.80
51557;DHT22;38766;53.194;5.532;2023-04-06T09:28:45;8.90;98.40
51557;DHT22;38766;53.194;5.532;2023-04-06T09:31:16;8.90;98.60
51557;DHT22;38766;53.194;5.532;2023-04-06T09:33:44;9.00;98.90
51557;DHT22;38766;53.194;5.532;2023-04-06T09:36:10;9.00;98.80
51557;DHT22;38766;53.194;5.532;2023-04-06T09:38:55;9.00;98.70
51557;DHT22;38766;53.194;5.532;2023-04-06T09:43:47;9.00;99.20
51557;DHT22;38766;53.194;5.532;2023-04-06T09:46:13;9.10;99.30
51557;DHT22;38766;53.194;5.532;2023-04-06T09:48:40;9.20;99.10
51557;DHT22;38766;53.194;5.532;2023-04-06T09:51:07;9.20;99.20
51557;DHT22;38766;53.194;5.532;2023-04-06T09:53:37;9.30;99.10
51557;DHT22;38766;53.194;5.532;2023-04-06T09:56:06;9.40;98.70
51557;DHT22;38766;53.194;5.532;2023-04-06T09:58:37;9.50;98.20
51557;DHT22;38766;53.194;5.532;2023-04-06T10:01:12;9.50;98.00
51557;DHT22;38766;53.194;5.532;2023-04-06T10:03:45;9.50;97.60
51557;DHT22;38766;53.194;5.532;2023-04-06T10:06:12;9.40;97.70
51557;DHT22;38766;53.194;5.532;2023-04-06T10:08:40;9.50;98.10
51557;DHT22;38766;53.194;5.532;2023-04-06T10:11:08;9.60;97.70
51557;DHT22;38766;53.194;5.532;2023-04-06T10:13:34;9.60;97.80
51557;DHT22;38766;53.194;5.532;2023-04-06T10:16:00;9.70;97.60
51557;DHT22;38766;53.194;5.532;2023-04-06T10:18:29;9.80;97.80
51557;DHT22;38766;53.194;5.532;2023-04-06T10:21:03;9.80;98.00
51557;DHT22;38766;53.194;5.532;2023-04-06T10:23:33;10.00;98.10
51557;DHT22;38766;53.194;5.532;2023-04-06T10:26:01;10.10;98.20
51557;DHT22;38766;53.194;5.532;2023-04-06T10:28:32;10.10;98.10
51557;DHT22;38766;53.194;5.532;2023-04-06T10:30:59;10.20;98.10
51557;DHT22;38766;53.194;5.532;2023-04-06T10:33:25;10.20;98.00
51557;DHT22;38766;53.194;5.532;2023-04-06T10:35:51;10.20;98.10
51557;DHT22;38766;53.194;5.532;2023-04-06T10:38:17;10.20;98.00
51557;DHT22;38766;53.194;5.532;2023-04-06T10:40:47;10.10;97.90
51557;DHT22;38766;53.194;5.532;2023-04-06T10:43:21;10.10;98.20
51557;DHT22;38766;53.194;5.532;2023-04-06T10:45:57;10.10;98.30
51557;DHT22;38766;53.194;5.532;2023-04-06T10:48:23;10.20;98.50
51557;DHT22;38766;53.194;5.532;2023-04-06T10:50:51;10.20;98.50
51557;DHT22;38766;53.194;5.532;2023-04-06T10:53:25;10.20;98.50
51557;DHT22;38766;53.194;5.532;2023-04-06T10:55:52;10.30;98.40
51557;DHT22;38766;53.194;5.532;2023-04-06T10:58:19;10.40;98.40
51557;DHT22;38766;53.194;5.532;2023-04-06T11:00:45;10.40;98.00
51557;DHT22;38766;53.194;5.532;2023-04-06T11:03:11;10.30;97.90
51557;DHT22;38766;53.194;5.532;2023-04-06T11:05:37;10.40;98.00
51557;DHT22;38766;53.194;5.532;2023-04-06T11:08:02;10.40;98.10
51557;DHT22;38766;53.194;5.532;2023-04-06T11:10:28;10.50;98.40
51557;DHT22;38766;53.194;5.532;2023-04-06T11:12:56;10.50;98.20
51557;DHT22;38766;53.194;5.532;2023-04-06T11:15:22;10.50;98.10
51557;DHT22;38766;53.194;5.532;2023-04-06T11:17:48;10.60;98.00
51557;DHT22;38766;53.194;5.532;2023-04-06T11:20:14;10.60;98.20
51557;DHT22;38766;53.194;5.532;2023-04-06T11:22:52;10.50;98.30
51557;DHT22;38766;53.194;5.532;2023-04-06T11:25:18;10.60;98.00
51557;DHT22;38766;53.194;5.532;2023-04-06T11:27:46;10.50;98.10
51557;DHT22;38766;53.194;5.532;2023-04-06T11:30:12;10.60;98.40
51557;DHT22;38766;53.194;5.532;2023-04-06T11:32:45;10.60;98.30
51557;DHT22;38766;53.194;5.532;2023-04-06T11:35:24;10.70;98.40
51557;DHT22;38766;53.194;5.532;2023-04-06T11:37:50;10.60;98.70
51557;DHT22;38766;53.194;5.532;2023-04-06T11:40:24;10.70;99.10
51557;DHT22;38766;53.194;5.532;2023-04-06T11:42:56;10.70;99.50
51557;DHT22;38766;53.194;5.532;2023-04-06T11:45:22;10.80;99.80
51557;DHT22;38766;53.194;5.532;2023-04-06T11:47:58;10.80;99.90
51557;DHT22;38766;53.194;5.532;2023-04-06T11:50:25;10.80;99.90
51557;DHT22;38766;53.194;5.532;2023-04-06T11:53:01;10.80;99.90
51557;DHT22;38766;53.194;5.532;2023-04-06T11:55:28;10.70;99.90
51557;DHT22;38766;53.194;5.532;2023-04-06T11:57:54;10.70;99.90
51557;DHT22;38766;53.194;5.532;2023-04-06T12:00:20;10.70;99.90
51557;DHT22;38766;53.194;5.532;2023-04-06T12:02:47;10.70;99.90
51557;DHT22;38766;53.194;5.532;2023-04-06T12:05:13;10.80;99.90
51557;DHT22;38766;53.194;5.532;2023-04-06T12:07:39;10.90;99.90
51557;DHT22;38766;53.194;5.532;2023-04-06T12:10:05;10.70;99.90
51557;DHT22;38766;53.194;5.532;2023-04-06T12:12:31;10.70;99.90
51557;DHT22;38766;53.194;5.532;2023-04-06T12:14:57;10.70;99.90
51557;DHT22;38766;53.194;5.532;2023-04-06T12:17:22;10.60;99.90
51557;DHT22;38766;53.194;5.532;2023-04-06T12:19:48;10.50;99.90
51557;DHT22;38766;53.194;5.532;2023-04-06T12:22:14;10.50;99.90
51557;DHT22;38766;53.194;5.532;2023-04-06T12:24:39;10.40;99.90
51557;DHT22;38766;53.194;5.532;2023-04-06T12:27:05;10.30;99.90
51557;DHT22;38766;53.194;5.532;2023-04-06T12:29:31;10.20;99.90
51557;DHT22;38766;53.194;5.532;2023-04-06T12:31:56;10.10;99.90
51557;DHT22;38766;53.194;5.532;2023-04-06T12:34:22;10.00;99.90
51557;DHT22;38766;53.194;5.532;2023-04-06T12:36:47;10.00;99.90
51557;DHT22;38766;53.194;5.532;2023-04-06T12:39:13;9.90;99.90
51557;DHT22;38766;53.194;5.532;2023-04-06T12:41:39;9.90;99.90
51557;DHT22;38766;53.194;5.532;2023-04-06T12:44:06;9.90;99.90
51557;DHT22;38766;53.194;5.532;2023-04-06T12:46:32;9.80;99.90
51557;DHT22;38766;53.194;5.532;2023-04-06T12:48:58;9.80;99.90
51557;DHT22;38766;53.194;5.532;2023-04-06T12:51:27;9.70;99.90
51557;DHT22;38766;53.194;5.532;2023-04-06T12:53:53;9.70;99.90
51557;DHT22;38766;53.194;5.532;2023-04-06T12:56:19;9.70;99.90
51557;DHT22;38766;53.194;5.532;2023-04-06T12:58:46;9.60;99.90
51557;DHT22;38766;53.194;5.532;2023-04-06T13:01:12;9.50;99.90
51557;DHT22;38766;53.194;5.532;2023-04-06T13:03:39;9.50;99.90
51557;DHT22;38766;53.194;5.532;2023-04-06T13:06:05;9.50;99.90
51557;DHT22;38766;53.194;5.532;2023-04-06T13:08:31;9.40;99.90
51557;DHT22;38766;53.194;5.532;2023-04-06T13:10:56;9.40;99.90
51557;DHT22;38766;53.194;5.532;2023-04-06T13:13:27;9.30;99.90
51557;DHT22;38766;53.194;5.532;2023-04-06T13:15:54;9.10;99.90
51557;DHT22;38766;53.194;5.532;2023-04-06T13:18:20;9.10;99.90
51557;DHT22;38766;53.194;5.532;2023-04-06T13:20:47;9.00;99.90
51557;DHT22;38766;53.194;5.532;2023-04-06T13:23:13;9.00;99.90
51557;DHT22;38766;53.194;5.532;2023-04-06T13:25:39;8.90;99.90
51557;DHT22;38766;53.194;5.532;2023-04-06T13:28:04;8.90;99.90
51557;DHT22;38766;53.194;5.532;2023-04-06T13:30:30;8.90;99.90
51557;DHT22;38766;53.194;5.532;2023-04-06T13:32:56;8.80;99.90
51557;DHT22;38766;53.194;5.532;2023-04-06T13:35:21;8.80;99.90
51557;DHT22;38766;53.194;5.532;2023-04-06T13:37:47;8.80;99.90
51557;DHT22;38766;53.194;5.532;2023-04-06T13:40:14;8.80;99.90
51557;DHT22;38766;53.194;5.532;2023-04-06T13:42:40;8.70;99.90
51557;DHT22;38766;53.194;5.532;2023-04-06T13:45:07;8.70;99.90
51557;DHT22;38766;53.194;5.532;2023-04-06T13:47:33;8.80;99.90
51557;DHT22;38766;53.194;5.532;2023-04-06T13:49:59;8.80;99.90
51557;DHT22;38766;53.194;5.532;2023-04-06T13:52:25;8.70;99.90
51557;DHT22;38766;53.194;5.532;2023-04-06T13:54:52;8.70;99.90
51557;DHT22;38766;53.194;5.532;2023-04-06T13:57:17;8.70;99.90
51557;DHT22;38766;53.194;5.532;2023-04-06T13:59:43;8.60;99.90
51557;DHT22;38766;53.194;5.532;2023-04-06T14:02:10;8.70;99.90
51557;DHT22;38766;53.194;5.532;2023-04-06T14:04:36;8.50;99.90
51557;DHT22;38766;53.194;5.532;2023-04-06T14:07:03;8.50;99.90
51557;DHT22;38766;53.194;5.532;2023-04-06T14:09:29;8.60;99.90
51557;DHT22;38766;53.194;5.532;2023-04-06T14:11:56;8.50;99.90
51557;DHT22;38766;53.194;5.532;2023-04-06T14:14:24;8.50;99.90
51557;DHT22;38766;53.194;5.532;2023-04-06T14:16:51;8.50;99.90
51557;DHT22;38766;53.194;5.532;2023-04-06T14:19:17;8.50;99.90
51557;DHT22;38766;53.194;5.532;2023-04-06T14:21:46;8.50;99.90
51557;DHT22;38766;53.194;5.532;2023-04-06T14:24:14;8.50;99.90
51557;DHT22;38766;53.194;5.532;2023-04-06T14:26:40;8.40;99.90
51557;DHT22;38766;53.194;5.532;2023-04-06T14:29:09;8.40;99.90
51557;DHT22;38766;53.194;5.532;2023-04-06T14:31:36;8.50;99.90
51557;DHT22;38766;53.194;5.532;2023-04-06T14:34:03;8.30;99.90
51557;DHT22;38766;53.194;5.532;2023-04-06T14:36:31;8.40;99.90
51557;DHT22;38766;53.194;5.532;2023-04-06T14:39:02;8.40;99.90
51557;DHT22;38766;53.194;5.532;2023-04-06T14:41:30;8.30;99.90
51557;DHT22;38766;53.194;5.532;2023-04-06T14:43:56;8.30;99.90
51557;DHT22;38766;53.194;5.532;2023-04-06T14:46:22;8.40;99.90
51557;DHT22;38766;53.194;5.532;2023-04-06T14:48:47;8.30;99.90
51557;DHT22;38766;53.194;5.532;2023-04-06T14:51:13;8.40;99.90
51557;DHT22;38766;53.194;5.532;2023-04-06T14:53:39;8.30;99.90
51557;DHT22;38766;53.194;5.532;2023-04-06T14:56:05;8.40;99.90
51557;DHT22;38766;53.194;5.532;2023-04-06T14:58:31;8.30;99.90
51557;DHT22;38766;53.194;5.532;2023-04-06T15:00:58;8.30;99.90
51557;DHT22;38766;53.194;5.532;2023-04-06T15:03:25;8.30;99.90
51557;DHT22;38766;53.194;5.532;2023-04-06T15:05:51;8.30;99.90
51557;DHT22;38766;53.194;5.532;2023-04-06T15:08:17;8.30;99.90
51557;DHT22;38766;53.194;5.532;2023-04-06T15:10:46;8.30;99.90
51557;DHT22;38766;53.194;5.532;2023-04-06T15:13:12;8.20;99.90
51557;DHT22;38766;53.194;5.532;2023-04-06T15:15:38;8.20;99.90
51557;DHT22;38766;53.194;5.532;2023-04-06T15:18:04;8.20;99.90
51557;DHT22;38766;53.194;5.532;2023-04-06T15:20:30;8.20;99.90
51557;DHT22;38766;53.194;5.532;2023-04-06T15:22:56;8.20;99.90
51557;DHT22;38766;53.194;5.532;2023-04-06T15:25:21;8.10;99.90
51557;DHT22;38766;53.194;5.532;2023-04-06T15:27:47;8.10;99.90
51557;DHT22;38766;53.194;5.532;2023-04-06T15:30:13;8.10;99.90
51557;DHT22;38766;53.194;5.532;2023-04-06T15:32:39;8.00;99.90
51557;DHT22;38766;53.194;5.532;2023-04-06T15:35:10;8.10;99.90
51557;DHT22;38766;53.194;5.532;2023-04-06T15:37:36;8.00;99.90
51557;DHT22;38766;53.194;5.532;2023-04-06T15:40:03;8.10;99.90
51557;DHT22;38766;53.194;5.532;2023-04-06T15:42:28;8.00;99.90
51557;DHT22;38766;53.194;5.532;2023-04-06T15:44:54;7.90;99.90